createdAt,value
2022-12-18T00:02:19.453Z,106.67
2022-12-18T00:05:24.470Z,110.90
2022-12-18T00:08:29.703Z,110.00
2022-12-18T00:11:34.683Z,100.43
2022-12-18T00:14:39.765Z,114.33
2022-12-18T00:17:49.325Z,80.67
2022-12-18T00:20:54.210Z,90.77
2022-12-18T00:24:00.662Z,97.80
2022-12-18T00:27:05.544Z,86.67
2022-12-18T00:30:11.541Z,89.03
2022-12-18T00:33:16.615Z,89.90
2022-12-18T00:36:25.237Z,101.97
2022-12-18T00:39:30.588Z,79.93
2022-12-18T00:42:54.234Z,97.80
2022-12-18T00:45:59.406Z,104.73
2022-12-18T00:49:04.985Z,112.93
2022-12-18T00:52:10.058Z,87.90
2022-12-18T00:55:14.985Z,81.83
2022-12-18T00:58:19.591Z,81.83
2022-12-18T01:01:24.942Z,65.13
2022-12-18T01:04:33.420Z,89.97
2022-12-18T01:07:40.553Z,79.50
2022-12-18T01:10:45.580Z,90.07
2022-12-18T01:13:53.933Z,84.43
2022-12-18T01:17:00.743Z,74.80
2022-12-18T01:20:06.757Z,67.23
2022-12-18T01:23:11.673Z,84.77
2022-12-18T01:26:17.320Z,74.43
2022-12-18T01:29:22.376Z,74.23
2022-12-18T01:32:27.381Z,68.67
2022-12-18T01:35:32.844Z,69.70
2022-12-18T01:38:37.904Z,71.50
2022-12-18T01:42:01.989Z,68.17
2022-12-18T01:45:12.918Z,62.03
2022-12-18T01:48:17.848Z,63.17
2022-12-18T01:51:23.467Z,63.23
2022-12-18T01:54:28.447Z,61.87
2022-12-18T01:57:33.965Z,83.03
2022-12-18T02:00:38.919Z,69.03
2022-12-18T02:03:45.132Z,61.67
2022-12-18T02:07:18.575Z,63.73
2022-12-18T02:10:42.739Z,60.87
2022-12-18T02:14:20.159Z,69.70
2022-12-18T02:17:53.559Z,84.57
2022-12-18T02:21:45.508Z,72.30
2022-12-18T02:25:55.386Z,58.83
2022-12-18T02:29:06.783Z,59.60
2022-12-18T02:32:19.538Z,69.90
2022-12-18T02:35:28.310Z,57.77
2022-12-18T02:38:36.063Z,61.93
2022-12-18T02:41:48.281Z,64.17
2022-12-18T02:44:56.856Z,62.40
2022-12-18T02:48:03.689Z,68.23
2022-12-18T02:51:32.633Z,60.10
2022-12-18T02:54:51.458Z,60.57
2022-12-18T02:58:15.043Z,60.80
2022-12-18T03:01:29.726Z,68.57
2022-12-18T03:04:55.375Z,61.73
2022-12-18T03:08:09.406Z,68.57
2022-12-18T03:11:37.450Z,48.40
2022-12-18T03:14:44.568Z,69.97
2022-12-18T03:18:14.023Z,65.43
2022-12-18T03:21:25.397Z,74.27
2022-12-18T03:24:31.010Z,62.53
2022-12-18T03:27:38.583Z,62.60
2022-12-18T03:30:48.459Z,69.57
2022-12-18T03:33:59.146Z,71.17
2022-12-18T03:37:11.997Z,75.00
2022-12-18T03:40:16.918Z,76.00
2022-12-18T03:43:50.448Z,70.47
2022-12-18T03:47:31.157Z,83.70
2022-12-18T03:50:57.677Z,65.17
2022-12-18T03:54:05.521Z,69.30
2022-12-18T03:57:25.852Z,56.27
2022-12-18T04:00:33.133Z,58.03
2022-12-18T04:03:46.414Z,65.57
2022-12-18T04:06:52.602Z,61.17
2022-12-18T04:10:00.237Z,71.63
2022-12-18T04:13:05.417Z,63.43
2022-12-18T04:16:10.640Z,64.40
2022-12-18T04:19:19.341Z,62.70
2022-12-18T04:22:28.078Z,66.73
2022-12-18T04:25:37.882Z,72.10
2022-12-18T04:28:54.488Z,57.03
2022-12-18T04:31:59.790Z,59.10
2022-12-18T04:35:11.410Z,51.73
2022-12-18T04:38:19.102Z,57.90
2022-12-18T04:41:27.292Z,54.10
2022-12-18T04:44:32.971Z,62.63
2022-12-18T04:47:37.950Z,63.47
2022-12-18T04:50:43.119Z,55.37
2022-12-18T04:53:48.051Z,65.77
2022-12-18T04:56:53.174Z,53.33
2022-12-18T04:59:58.911Z,64.47
2022-12-18T05:03:05.154Z,54.97
2022-12-18T05:06:10.729Z,57.80
2022-12-18T05:09:15.938Z,71.63
2022-12-18T05:12:25.463Z,61.03
2022-12-18T05:15:31.693Z,65.37
2022-12-18T05:18:36.997Z,61.37
2022-12-18T05:21:41.758Z,64.83
2022-12-18T05:24:46.645Z,62.27
2022-12-18T05:27:51.610Z,60.47
2022-12-18T05:30:59.710Z,65.07
2022-12-18T05:34:05.247Z,61.53
2022-12-18T05:37:09.968Z,67.87
2022-12-18T05:40:15.214Z,55.30
2022-12-18T05:43:22.595Z,62.40
2022-12-18T05:46:28.075Z,58.37
2022-12-18T05:49:33.337Z,58.90
2022-12-18T05:52:38.014Z,58.10
2022-12-18T05:55:43.681Z,55.40
2022-12-18T05:58:53.774Z,58.97
2022-12-18T06:01:58.962Z,65.57
2022-12-18T06:05:04.189Z,60.93
2022-12-18T06:08:09.863Z,63.53
2022-12-18T06:11:19.107Z,67.30
2022-12-18T06:14:24.310Z,59.63
2022-12-18T06:17:33.876Z,53.00
2022-12-18T06:20:40.592Z,67.67
2022-12-18T06:23:45.759Z,57.33
2022-12-18T06:26:50.689Z,61.30
2022-12-18T06:29:55.665Z,66.17
2022-12-18T06:33:00.572Z,57.07
2022-12-18T06:36:08.619Z,62.07
2022-12-18T06:39:13.473Z,65.40
2022-12-18T06:42:18.244Z,53.70
2022-12-18T06:45:22.999Z,54.33
2022-12-18T06:48:28.296Z,62.03
2022-12-18T06:51:33.091Z,58.20
2022-12-18T06:54:38.129Z,55.87
2022-12-18T06:57:42.896Z,52.63
2022-12-18T07:00:47.859Z,55.43
2022-12-18T07:03:55.602Z,45.70
2022-12-18T07:07:00.903Z,54.23
2022-12-18T07:10:06.465Z,48.93
2022-12-18T07:13:11.628Z,48.87
2022-12-18T07:16:24.622Z,45.10
2022-12-18T07:19:30.766Z,46.90
2022-12-18T07:22:36.201Z,44.43
2022-12-18T07:25:41.498Z,49.53
2022-12-18T07:28:46.812Z,48.77
2022-12-18T07:31:51.610Z,49.47
2022-12-18T07:34:56.547Z,50.83
2022-12-18T07:38:01.523Z,47.50
2022-12-18T07:41:12.474Z,49.57
2022-12-18T07:44:17.318Z,48.90
2022-12-18T07:47:22.498Z,42.83
2022-12-18T07:50:27.828Z,42.60
2022-12-18T07:53:34.082Z,49.73
2022-12-18T07:56:38.742Z,52.92
2022-12-18T07:59:43.983Z,55.88
2022-12-18T08:02:49.389Z,55.92
2022-12-18T08:05:54.212Z,46.25
2022-12-18T08:08:59.584Z,46.03
2022-12-18T08:18:04.867Z,42.22
2022-12-18T08:21:18.182Z,46.10
2022-12-18T08:24:23.034Z,44.55
2022-12-18T08:27:29.654Z,50.40
2022-12-18T08:30:35.003Z,44.83
2022-12-18T08:33:42.256Z,42.58
2022-12-18T08:36:47.529Z,49.83
2022-12-18T08:39:52.549Z,48.17
2022-12-18T08:43:15.915Z,46.47
2022-12-18T08:46:22.153Z,44.10
2022-12-18T08:49:26.695Z,46.40
2022-12-18T08:52:33.539Z,48.30
2022-12-18T08:55:38.334Z,45.72
2022-12-18T08:58:43.716Z,47.97
2022-12-18T09:01:49.271Z,49.80
2022-12-18T09:04:57.625Z,49.00
2022-12-18T09:08:03.133Z,45.00
2022-12-18T09:11:15.227Z,53.35
2022-12-18T09:14:20.242Z,44.17
2022-12-18T09:17:25.159Z,44.60
2022-12-18T09:20:30.865Z,45.08
2022-12-18T09:23:36.073Z,50.08
2022-12-18T09:26:40.761Z,52.55
2022-12-18T09:29:48.120Z,47.97
2022-12-18T09:32:56.444Z,48.08
2022-12-18T09:36:04.140Z,54.80
2022-12-18T09:39:09.175Z,51.10
2022-12-18T09:42:22.123Z,70.55
2022-12-18T09:45:26.654Z,63.13
2022-12-18T09:48:42.802Z,59.42
2022-12-18T09:51:54.108Z,39.55
2022-12-18T09:55:39.150Z,45.22
2022-12-18T09:58:58.887Z,45.65
2022-12-18T10:02:19.670Z,47.13
2022-12-18T10:06:04.940Z,45.38
2022-12-18T10:09:36.982Z,43.58
2022-12-18T10:13:06.294Z,43.17
2022-12-18T10:16:21.745Z,49.13
2022-12-18T10:19:54.190Z,41.63
2022-12-18T10:23:12.111Z,43.78
2022-12-18T10:26:16.985Z,40.30
2022-12-18T10:29:22.566Z,42.55
2022-12-18T10:32:30.515Z,53.70
2022-12-18T10:35:35.802Z,53.92
2022-12-18T10:38:41.242Z,50.92
2022-12-18T10:41:47.227Z,43.15
2022-12-18T10:45:11.011Z,56.60
2022-12-18T10:48:22.116Z,48.85
2022-12-18T10:51:35.552Z,55.60
2022-12-18T10:54:40.429Z,49.97
2022-12-18T10:57:45.400Z,53.33
2022-12-18T11:01:14.767Z,47.95
2022-12-18T11:04:28.165Z,54.90
2022-12-18T11:07:51.958Z,47.20
2022-12-18T11:10:56.789Z,48.80
2022-12-18T11:14:17.775Z,46.83
2022-12-18T11:17:37.362Z,43.40
2022-12-18T11:20:42.379Z,42.83
2022-12-18T11:23:54.588Z,63.67
2022-12-18T11:27:05.588Z,40.53
2022-12-18T11:30:20.781Z,38.30
2022-12-18T11:33:25.824Z,37.28
2022-12-18T11:36:37.321Z,36.58
2022-12-18T11:39:52.402Z,41.15
2022-12-18T11:43:21.444Z,36.58
2022-12-18T11:46:41.113Z,40.13
2022-12-18T11:49:50.552Z,43.00
2022-12-18T11:52:58.329Z,48.50
2022-12-18T11:56:36.993Z,46.85
2022-12-18T11:59:57.981Z,39.33
2022-12-18T12:03:36.934Z,67.15
2022-12-18T12:07:19.179Z,66.80
2022-12-18T12:10:27.377Z,48.50
2022-12-18T12:13:47.185Z,46.47
2022-12-18T12:17:11.521Z,41.15
2022-12-18T12:20:36.146Z,44.35
2022-12-18T12:23:50.077Z,42.28
2022-12-18T12:27:23.706Z,58.58
2022-12-18T12:30:47.378Z,43.22
2022-12-18T12:34:41.067Z,44.20
2022-12-18T12:38:05.656Z,48.63
2022-12-18T12:41:33.400Z,51.03
2022-12-18T12:44:55.656Z,47.95
2022-12-18T12:48:03.939Z,44.45
2022-12-18T12:51:20.926Z,45.53
2022-12-18T12:54:27.268Z,35.63
2022-12-18T12:57:41.332Z,49.60
2022-12-18T13:01:27.191Z,51.22
2022-12-18T13:04:46.018Z,50.10
2022-12-18T13:08:04.237Z,48.88
2022-12-18T13:11:51.644Z,53.53
2022-12-18T13:15:21.573Z,52.13
2022-12-18T13:18:26.721Z,56.58
2022-12-18T13:21:34.676Z,52.97
2022-12-18T13:24:39.618Z,58.92
2022-12-18T13:27:45.682Z,59.17
2022-12-18T13:30:58.950Z,50.67
2022-12-18T13:34:28.255Z,54.72
2022-12-18T13:37:44.087Z,55.75
2022-12-18T13:40:49.134Z,47.50
2022-12-18T13:43:58.953Z,47.00
2022-12-18T13:47:05.783Z,44.25
2022-12-18T13:50:24.015Z,50.35
2022-12-18T13:54:19.037Z,67.18
2022-12-18T13:57:35.071Z,70.25
2022-12-18T14:00:43.639Z,70.28
2022-12-18T14:03:48.499Z,60.00
2022-12-18T14:07:12.027Z,54.20
2022-12-18T14:10:44.299Z,65.15
2022-12-18T14:13:44.666Z,68.18
2022-12-18T14:16:50.140Z,67.03
2022-12-18T14:19:55.165Z,78.80
2022-12-18T14:23:01.189Z,68.15
2022-12-18T14:26:30.425Z,63.55
2022-12-18T14:29:36.205Z,55.67
2022-12-18T14:32:41.131Z,58.78
2022-12-18T14:36:04.753Z,64.97
2022-12-18T14:39:18.485Z,64.63
2022-12-18T14:42:23.501Z,68.00
2022-12-18T14:45:43.834Z,57.63
2022-12-18T14:48:49.593Z,43.92
2022-12-18T14:52:02.729Z,47.55
2022-12-18T14:55:19.882Z,39.92
2022-12-18T14:58:24.567Z,39.42
2022-12-18T15:01:38.830Z,36.22
2022-12-18T15:04:45.005Z,50.40
2022-12-18T15:07:52.977Z,47.22
2022-12-18T15:10:58.047Z,54.92
2022-12-18T15:14:30.680Z,72.05
2022-12-18T15:17:35.226Z,95.55
2022-12-18T15:20:56.155Z,92.97
2022-12-18T15:24:01.222Z,129.00
2022-12-18T15:27:06.123Z,149.77
2022-12-18T15:30:10.760Z,50.40
2022-12-18T15:33:27.773Z,49.20
2022-12-18T15:36:37.176Z,48.88
2022-12-18T15:39:42.165Z,62.87
2022-12-18T15:43:06.200Z,109.65
2022-12-18T15:46:21.469Z,134.40
2022-12-18T15:49:26.733Z,141.97
2022-12-18T15:52:40.714Z,192.83
2022-12-18T15:56:03.968Z,159.57
2022-12-18T15:59:13.649Z,139.17
2022-12-18T16:02:20.018Z,104.17
2022-12-18T16:05:25.667Z,112.47
2022-12-18T16:08:31.240Z,94.53
2022-12-18T16:11:43.951Z,92.40
2022-12-18T16:14:49.402Z,51.83
2022-12-18T16:17:54.462Z,69.23
2022-12-18T16:20:59.526Z,78.07
2022-12-18T16:24:04.425Z,61.17
2022-12-18T16:27:09.520Z,64.17
2022-12-18T16:30:17.258Z,58.77
2022-12-18T16:33:22.601Z,64.97
2022-12-18T16:36:27.304Z,59.67
2022-12-18T16:39:34.193Z,55.47
2022-12-18T16:42:40.579Z,68.73
2022-12-18T16:45:45.512Z,97.23
2022-12-18T16:48:50.098Z,105.93
2022-12-18T16:51:54.832Z,75.80
2022-12-18T16:54:59.667Z,81.83
2022-12-18T16:58:04.774Z,86.23
2022-12-18T17:01:11.363Z,113.63
2022-12-18T17:04:17.174Z,107.97
2022-12-18T17:07:22.379Z,78.73
2022-12-18T17:10:27.573Z,71.07
2022-12-18T17:13:32.332Z,94.97
2022-12-18T17:16:37.561Z,73.00
2022-12-18T17:19:44.238Z,80.63
2022-12-18T17:22:49.276Z,76.00
2022-12-18T17:25:58.316Z,63.17
2022-12-18T17:29:04.007Z,93.57
2022-12-18T17:32:09.341Z,91.10
2022-12-18T17:35:14.368Z,133.20
2022-12-18T17:38:19.484Z,166.70
2022-12-18T17:41:25.162Z,235.17
2022-12-18T17:44:29.978Z,98.57
2022-12-18T17:47:34.963Z,72.60
2022-12-18T17:50:39.713Z,85.90
2022-12-18T17:53:45.485Z,92.07
2022-12-18T17:56:50.434Z,146.87
2022-12-18T17:59:55.341Z,70.43
2022-12-18T18:03:00.677Z,69.73
2022-12-18T18:06:06.285Z,61.00
2022-12-18T18:09:17.025Z,105.47
2022-12-18T18:12:40.398Z,94.03
2022-12-18T18:15:45.176Z,93.73
2022-12-18T18:18:49.807Z,102.30
2022-12-18T18:21:55.038Z,92.20
2022-12-18T18:25:00.747Z,105.20
2022-12-18T18:28:07.244Z,134.43
2022-12-18T18:31:13.033Z,125.80
2022-12-18T18:34:24.109Z,95.23
2022-12-18T18:37:29.422Z,98.90
2022-12-18T18:40:34.173Z,101.13
2022-12-18T18:43:39.399Z,98.63
2022-12-18T18:46:45.471Z,84.40
2022-12-18T18:49:50.052Z,91.83
2022-12-18T18:52:54.914Z,77.50
2022-12-18T18:56:34.927Z,79.47
2022-12-18T18:59:31.573Z,60.87
2022-12-18T19:02:37.106Z,66.47
2022-12-18T19:05:45.988Z,61.60
2022-12-18T19:08:54.217Z,60.43
2022-12-18T19:12:17.614Z,55.43
2022-12-18T19:15:22.508Z,53.37
2022-12-18T19:18:27.771Z,50.20
2022-12-18T19:21:34.792Z,67.73
2022-12-18T19:24:39.706Z,58.60
2022-12-18T19:27:44.530Z,71.27
2022-12-18T19:30:49.923Z,74.77
2022-12-18T19:33:56.483Z,117.87
2022-12-18T19:37:01.201Z,97.27
2022-12-18T19:40:07.330Z,84.37
2022-12-18T19:43:17.874Z,93.43
2022-12-18T19:46:24.079Z,81.33
2022-12-18T19:49:30.266Z,77.23
2022-12-18T19:52:35.560Z,73.93
2022-12-18T19:55:43.863Z,81.77
2022-12-18T19:58:49.845Z,74.97
2022-12-18T20:01:55.011Z,65.07
2022-12-18T20:05:00.311Z,72.83
2022-12-18T20:08:05.721Z,69.53
2022-12-18T20:11:11.010Z,81.80
2022-12-18T20:14:22.682Z,88.70
2022-12-18T20:17:28.558Z,74.30
2022-12-18T20:20:34.702Z,77.30
2022-12-18T20:23:40.017Z,89.57
2022-12-18T20:26:45.046Z,83.10
2022-12-18T20:29:49.923Z,88.40
2022-12-18T20:32:54.769Z,74.80
2022-12-18T20:36:06.193Z,69.13
2022-12-18T20:39:12.279Z,90.07
2022-12-18T20:42:19.463Z,77.83
2022-12-18T20:45:24.419Z,81.23
2022-12-18T20:48:30.234Z,69.33
2022-12-18T20:51:35.816Z,65.67
2022-12-18T20:54:40.660Z,67.70
2022-12-18T20:57:45.481Z,85.53
2022-12-18T21:00:51.551Z,146.80
2022-12-18T21:03:56.715Z,82.73
2022-12-18T21:07:02.961Z,99.47
2022-12-18T21:10:08.534Z,80.10
2022-12-18T21:13:13.369Z,98.13
2022-12-18T21:16:19.119Z,73.37
2022-12-18T21:19:27.068Z,90.60
2022-12-18T21:22:32.128Z,88.50
2022-12-18T21:25:36.875Z,76.77
2022-12-18T21:28:41.834Z,115.73
2022-12-18T21:31:47.443Z,105.37
2022-12-18T21:34:52.689Z,87.47
2022-12-18T21:37:58.834Z,86.67
2022-12-18T21:41:07.870Z,88.60
2022-12-18T21:44:18.013Z,89.77
2022-12-18T21:47:23.530Z,85.37
2022-12-18T21:50:28.842Z,85.90
2022-12-18T21:53:33.662Z,87.77
2022-12-18T21:56:51.323Z,83.53
2022-12-18T21:59:56.305Z,81.83
2022-12-18T22:03:17.742Z,60.47
2022-12-18T22:06:23.798Z,82.47
2022-12-18T22:09:28.715Z,63.73
2022-12-18T22:12:37.748Z,88.17
2022-12-18T22:15:49.907Z,69.03
2022-12-18T22:18:55.192Z,80.93
2022-12-18T22:22:00.273Z,65.70
2022-12-18T22:25:05.761Z,61.43
2022-12-18T22:28:29.280Z,78.90
2022-12-18T22:31:34.245Z,69.27
2022-12-18T22:34:39.466Z,108.47
2022-12-18T22:37:44.462Z,73.60
2022-12-18T22:40:49.425Z,98.43
2022-12-18T22:43:54.371Z,108.93
2022-12-18T22:47:06.441Z,68.63
2022-12-18T22:50:14.902Z,82.27
2022-12-18T22:53:19.680Z,74.57
2022-12-18T22:56:24.719Z,78.50
2022-12-18T22:59:29.700Z,96.43
2022-12-18T23:02:34.830Z,65.70
2022-12-18T23:05:39.858Z,46.60
2022-12-18T23:08:44.780Z,60.57
2022-12-18T23:11:49.789Z,53.60
2022-12-18T23:14:54.509Z,70.37
2022-12-18T23:18:00.050Z,128.93
2022-12-18T23:21:11.233Z,90.70
2022-12-18T23:24:16.635Z,129.13
2022-12-18T23:27:21.293Z,122.07
2022-12-18T23:30:26.316Z,77.37
2022-12-18T23:33:31.309Z,70.57
2022-12-18T23:36:45.755Z,53.73
2022-12-18T23:39:51.846Z,54.10
2022-12-18T23:42:56.772Z,53.53
2022-12-18T23:46:01.963Z,52.63
2022-12-18T23:49:06.917Z,97.43
2022-12-18T23:52:11.740Z,50.87
2022-12-18T23:55:16.883Z,46.33
2022-12-18T23:58:21.981Z,57.80
